Time,TemperatureF,DewpointF,PressureIn,WindDirection,WindDirectionDegrees,WindSpeedMPH,WindSpeedGustMPH,Humidity,HourlyPrecipIn,Conditions,Clouds,dailyrainin,SoftwareType,DateUTC
2013-04-25 00:03:00,42.8,24.4,30.14,ENE,69,4.0,4.0,48,0.00,,,0.00,WeatherDisplay:10.36,2013-04-25 05:03:00,
2013-04-25 00:08:00,42.8,24.4,30.14,NE,51,6.9,6.9,48,0.00,,,0.00,WeatherDisplay:10.36,2013-04-25 05:08:00,
2013-04-25 00:13:00,42.8,24.4,30.14,NE,47,4.6,0.0,48,0.00,,,0.00,WeatherDisplay:10.36,2013-04-25 05:13:00,
2013-04-25 00:18:00,42.8,24.4,30.14,NE,54,5.8,0.0,48,0.00,,,0.00,WeatherDisplay:10.36,2013-04-25 05:18:00,
2013-04-25 00:23:00,42.6,24.3,30.14,ENE,62,6.9,6.9,48,0.00,,,0.00,WeatherDisplay:10.36,2013-04-25 05:23:00,
2013-04-25 00:28:00,42.6,24.8,30.14,ENE,67,4.0,4.0,49,0.00,,,0.00,WeatherDisplay:10.36,2013-04-25 05:28:00,
2013-04-25 00:33:00,42.6,24.8,30.14,NE,51,5.4,0.0,49,0.00,,,0.00,WeatherDisplay:10.36,2013-04-25 05:33:00,
2013-04-25 00:38:00,42.4,24.6,30.14,NE,46,3.6,3.6,49,0.00,,,0.00,WeatherDisplay:10.36,2013-04-25 05:38:00,
2013-04-25 00:43:00,42.4,24.6,30.14,ENE,71,3.5,0.0,49,0.00,,,0.00,WeatherDisplay:10.36,2013-04-25 05:43:00,
2013-04-25 00:48:00,42.4,24.6,30.14,NE,47,4.6,0.0,49,0.00,,,0.00,WeatherDisplay:10.36,2013-04-25 05:48:00,
2013-04-25 00:53:00,42.4,24.6,30.14,NE,49,5.8,5.8,49,0.00,,,0.00,WeatherDisplay:10.36,2013-04-25 05:53:00,
2013-04-25 00:58:00,42.4,24.6,30.14,NE,48,5.8,5.8,49,0.00,,,0.00,WeatherDisplay:10.36,2013-04-25 05:58:00,
2013-04-25 01:03:00,42.4,24.6,30.14,NE,48,6.9,6.9,49,0.00,,,0.00,WeatherDisplay:10.36,2013-04-25 06:03:00,
2013-04-25 01:08:00,42.4,25.1,30.14,East,91,4.0,0.0,50,0.00,,,0.00,WeatherDisplay:10.36,2013-04-25 06:08:00,
2013-04-25 01:13:00,42.4,25.1,30.14,NE,47,5.8,0.0,50,0.00,,,0.00,WeatherDisplay:10.36,2013-04-25 06:13:00,
2013-04-25 01:18:00,42.4,25.1,30.14,East,94,4.9,4.9,50,0.00,,,0.00,WeatherDisplay:10.36,2013-04-25 06:18:00,
2013-04-25 01:23:00,42.4,25.1,30.14,NE,56,4.0,4.0,50,0.00,,,0.00,WeatherDisplay:10.36,2013-04-25 06:23:00,
2013-04-25 01:28:00,42.3,24.9,30.14,East,91,4.9,4.9,50,0.00,,,0.00,WeatherDisplay:10.36,2013-04-25 06:28:00,
2013-04-25 01:33:00,42.3,24.9,30.14,NE,54,4.5,4.5,50,0.00,,,0.00,WeatherDisplay:10.36,2013-04-25 06:33:00,
2013-04-25 01:38:00,42.3,24.9,30.14,ENE,63,3.6,3.6,50,0.00,,,0.00,WeatherDisplay:10.36,2013-04-25 06:38:00,
2013-04-25 01:43:00,42.3,24.9,30.14,East,87,3.6,3.6,50,0.00,,,0.00,WeatherDisplay:10.36,2013-04-25 06:43:00,
2013-04-25 01:48:00,42.3,25.4,30.14,ESE,115,8.1,8.1,51,0.00,,,0.00,WeatherDisplay:10.36,2013-04-25 06:48:00,
2013-04-25 01:53:00,42.3,25.4,30.14,NE,46,3.6,0.0,51,0.00,,,0.00,WeatherDisplay:10.36,2013-04-25 06:53:00,
2013-04-25 01:58:00,42.3,25.4,30.14,NE,50,5.8,0.0,51,0.00,,,0.00,WeatherDisplay:10.36,2013-04-25 06:58:00,
2013-04-25 02:03:00,42.1,25.2,30.14,NE,46,3.6,0.0,51,0.00,,,0.00,WeatherDisplay:10.36,2013-04-25 07:03:00,
2013-04-25 02:08:00,42.1,25.2,30.14,West,263,5.8,5.8,51,0.00,,,0.00,WeatherDisplay:10.36,2013-04-25 07:08:00,
2013-04-25 02:13:00,42.1,25.2,30.14,West,263,4.0,4.0,51,0.00,,,0.00,WeatherDisplay:10.36,2013-04-25 07:13:00,
2013-04-25 02:18:00,42.1,25.2,30.14,NE,50,4.0,4.0,51,0.00,,,0.00,WeatherDisplay:10.36,2013-04-25 07:18:00,
2013-04-25 02:23:00,42.1,25.2,30.14,NE,56,4.6,4.6,51,0.00,,,0.00,WeatherDisplay:10.36,2013-04-25 07:23:00,
2013-04-25 02:28:00,42.1,25.2,30.14,NE,46,4.6,4.6,51,0.00,,,0.00,WeatherDisplay:10.36,2013-04-25 07:28:00,
2013-04-25 02:33:00,42.1,25.2,30.14,SSW,211,4.9,4.9,51,0.00,,,0.00,WeatherDisplay:10.36,2013-04-25 07:33:00,
2013-04-25 02:38:00,42.1,25.2,30.14,East,101,4.6,4.6,51,0.00,,,0.00,WeatherDisplay:10.36,2013-04-25 07:38:00,
2013-04-25 02:43:00,42.3,25.4,30.14,East,89,4.9,4.9,51,0.00,,,0.00,WeatherDisplay:10.36,2013-04-25 07:43:00,
2013-04-25 02:48:00,42.3,25.4,30.14,ENE,69,4.6,4.6,51,0.00,,,0.00,WeatherDisplay:10.36,2013-04-25 07:48:00,
2013-04-25 02:53:00,42.3,25.4,30.14,NE,56,4.9,4.9,51,0.00,,,0.00,WeatherDisplay:10.36,2013-04-25 07:53:00,
2013-04-25 02:58:00,42.3,25.4,30.14,NE,44,4.9,4.9,51,0.00,,,0.00,WeatherDisplay:10.36,2013-04-25 07:58:00,
2013-04-25 03:03:00,42.3,25.4,30.14,ENE,62,5.8,5.8,51,0.00,,,0.00,WeatherDisplay:10.36,2013-04-25 08:03:00,
2013-04-25 03:08:00,42.3,25.4,30.14,NE,49,4.6,4.6,51,0.00,,,0.00,WeatherDisplay:10.36,2013-04-25 08:08:00,
2013-04-25 03:13:00,42.3,25.4,30.14,NE,50,5.8,5.8,51,0.00,,,0.00,WeatherDisplay:10.36,2013-04-25 08:13:00,
2013-04-25 03:18:00,42.3,25.9,30.14,NE,46,4.6,4.6,52,0.00,,,0.00,WeatherDisplay:10.36,2013-04-25 08:18:00,
2013-04-25 03:23:00,42.3,25.9,30.14,SSE,151,5.8,5.8,52,0.00,,,0.00,WeatherDisplay:10.36,2013-04-25 08:23:00,
2013-04-25 03:28:00,42.4,26.0,30.14,NE,48,4.6,4.6,52,0.00,,,0.00,WeatherDisplay:10.36,2013-04-25 08:28:00,
2013-04-25 03:33:00,42.4,26.0,30.14,East,87,3.5,3.5,52,0.00,,,0.00,WeatherDisplay:10.36,2013-04-25 08:33:00,
2013-04-25 03:38:00,42.4,26.0,30.14,SSW,212,4.6,4.6,52,0.00,,,0.00,WeatherDisplay:10.36,2013-04-25 08:38:00,
2013-04-25 03:43:00,42.4,26.0,30.14,SE,146,5.8,5.8,52,0.00,,,0.00,WeatherDisplay:10.36,2013-04-25 08:43:00,
2013-04-25 03:48:00,42.4,26.0,30.17,East,95,5.8,5.8,52,0.00,,,0.00,WeatherDisplay:10.36,2013-04-25 08:48:00,
2013-04-25 03:53:00,42.4,26.0,30.17,NE,47,5.8,5.8,52,0.00,,,0.00,WeatherDisplay:10.36,2013-04-25 08:53:00,
2013-04-25 03:58:00,42.4,26.0,30.17,NE,46,7.4,7.4,52,0.00,,,0.00,WeatherDisplay:10.36,2013-04-25 08:58:00,
2013-04-25 04:03:00,42.4,26.0,30.17,ESE,105,6.3,6.3,52,0.00,,,0.00,WeatherDisplay:10.36,2013-04-25 09:03:00,
2013-04-25 04:08:00,42.4,26.0,30.17,ENE,58,4.6,4.6,52,0.00,,,0.00,WeatherDisplay:10.36,2013-04-25 09:08:00,
2013-04-25 04:13:00,42.4,26.0,30.17,ENE,69,4.6,4.6,52,0.00,,,0.00,WeatherDisplay:10.36,2013-04-25 09:13:00,
2013-04-25 04:18:00,42.4,26.0,30.17,East,98,4.5,4.5,52,0.00,,,0.00,WeatherDisplay:10.36,2013-04-25 09:18:00,
2013-04-25 04:23:00,42.3,25.9,30.17,NE,46,2.7,0.0,52,0.00,,,0.00,WeatherDisplay:10.36,2013-04-25 09:23:00,
2013-04-25 04:28:00,42.3,25.9,30.17,East,87,0.0,0.0,52,0.00,,,0.00,WeatherDisplay:10.36,2013-04-25 09:28:00,
2013-04-25 04:33:00,42.3,26.3,30.17,NE,56,4.9,4.9,53,0.00,,,0.00,WeatherDisplay:10.36,2013-04-25 09:33:00,
2013-04-25 04:38:00,42.1,26.2,30.17,East,87,0.0,0.0,53,0.00,,,0.00,WeatherDisplay:10.36,2013-04-25 09:38:00,
2013-04-25 04:43:00,42.1,26.2,30.17,ESE,105,3.5,0.0,53,0.00,,,0.00,WeatherDisplay:10.36,2013-04-25 09:43:00,
2013-04-25 04:48:00,42.1,26.6,30.17,East,89,2.7,0.0,54,0.00,,,0.00,WeatherDisplay:10.36,2013-04-25 09:48:00,
2013-04-25 04:53:00,41.9,26.4,30.17,ESE,105,4.9,4.9,54,0.00,,,0.00,WeatherDisplay:10.36,2013-04-25 09:53:00,
2013-04-25 04:58:00,41.9,26.9,30.17,ENE,59,3.5,3.5,55,0.00,,,0.00,WeatherDisplay:10.36,2013-04-25 09:58:00,
2013-04-25 05:03:00,41.7,26.7,30.17,West,263,0.0,0.0,55,0.00,,,0.00,WeatherDisplay:10.36,2013-04-25 10:03:00,
2013-04-25 05:08:00,41.7,26.7,30.20,ENE,65,2.7,0.0,55,0.00,,,0.00,WeatherDisplay:10.36,2013-04-25 10:08:00,
2013-04-25 05:14:00,41.5,27.0,30.20,ESE,110,3.6,0.0,56,0.00,,,0.00,WeatherDisplay:10.36,2013-04-25 10:14:00,
2013-04-25 05:19:00,41.4,26.8,30.20,ENE,70,3.5,0.0,56,0.00,,,0.00,WeatherDisplay:10.36,2013-04-25 10:19:00,
2013-04-25 05:20:00,41.5,27.0,30.20,East,83,3.6,3.6,56,0.00,,,0.00,WeatherDisplay:10.36,2013-04-25 10:20:00,
2013-04-25 05:26:00,41.4,26.8,30.20,ENE,70,3.5,0.0,56,0.00,,,0.00,WeatherDisplay:10.36,2013-04-25 10:26:00,
2013-04-25 05:32:00,41.2,26.7,30.20,East,80,4.0,4.0,56,0.00,,,0.00,WeatherDisplay:10.36,2013-04-25 10:32:00,
2013-04-25 05:37:00,41.0,26.5,30.20,NE,48,3.5,0.0,56,0.00,,,0.00,WeatherDisplay:10.36,2013-04-25 10:37:00,
2013-04-25 05:42:00,41.0,26.9,30.20,South,170,3.6,0.0,57,0.00,,,0.00,WeatherDisplay:10.36,2013-04-25 10:42:00,
2013-04-25 05:47:00,40.8,26.7,30.20,NE,55,2.3,0.0,57,0.00,,,0.00,WeatherDisplay:10.36,2013-04-25 10:47:00,
2013-04-25 05:52:00,40.6,26.6,30.20,NE,55,0.0,0.0,57,0.00,,,0.00,WeatherDisplay:10.36,2013-04-25 10:52:00,
2013-04-25 05:57:00,40.6,26.6,30.20,NE,55,0.0,0.0,57,0.00,,,0.00,WeatherDisplay:10.36,2013-04-25 10:57:00,
2013-04-25 06:02:00,40.5,26.8,30.20,ENE,73,2.7,0.0,58,0.00,,,0.00,WeatherDisplay:10.36,2013-04-25 11:02:00,
2013-04-25 06:07:00,40.5,26.8,30.20,ENE,73,2.7,0.0,58,0.00,,,0.00,WeatherDisplay:10.36,2013-04-25 11:07:00,
2013-04-25 06:12:00,40.3,27.1,30.20,ENE,59,3.5,3.5,59,0.00,,,0.00,WeatherDisplay:10.36,2013-04-25 11:12:00,
2013-04-25 06:17:00,40.3,27.1,30.20,ENE,59,3.5,3.5,59,0.00,,,0.00,WeatherDisplay:10.36,2013-04-25 11:17:00,
2013-04-25 06:22:00,40.1,26.9,30.20,NE,48,3.6,0.0,59,0.00,,,0.00,WeatherDisplay:10.36,2013-04-25 11:22:00,
2013-04-25 06:27:00,40.1,26.9,30.20,NE,48,3.6,0.0,59,0.00,,,0.00,WeatherDisplay:10.36,2013-04-25 11:27:00,
2013-04-25 06:33:00,40.1,27.3,30.20,East,90,3.6,3.6,60,0.00,,,0.00,WeatherDisplay:10.36,2013-04-25 11:33:00,
2013-04-25 06:38:00,40.1,27.3,30.20,ESE,111,3.5,3.5,60,0.00,,,0.00,WeatherDisplay:10.36,2013-04-25 11:38:00,
2013-04-25 06:43:00,40.1,27.7,30.20,SE,143,3.5,3.5,61,0.00,,,0.00,WeatherDisplay:10.36,2013-04-25 11:43:00,
2013-04-25 06:48:00,40.3,27.9,30.20,WSW,258,4.0,4.0,61,0.00,,,0.00,WeatherDisplay:10.36,2013-04-25 11:48:00,
2013-04-25 06:53:00,40.5,28.5,30.20,ENE,64,3.6,3.6,62,0.00,,,0.00,WeatherDisplay:10.36,2013-04-25 11:53:00,
2013-04-25 06:58:00,40.6,28.6,30.20,ENE,67,3.6,3.6,62,0.00,,,0.00,WeatherDisplay:10.36,2013-04-25 11:58:00,
2013-04-25 07:03:00,40.8,28.8,30.20,ENE,63,3.5,3.5,62,0.00,,,0.00,WeatherDisplay:10.36,2013-04-25 12:03:00,
2013-04-25 07:08:00,41.0,29.4,30.20,East,88,4.5,4.5,63,0.00,,,0.00,WeatherDisplay:10.36,2013-04-25 12:08:00,
2013-04-25 07:13:00,41.2,29.5,30.20,East,80,4.6,4.6,63,0.00,,,0.00,WeatherDisplay:10.36,2013-04-25 12:13:00,
2013-04-25 07:18:00,41.5,30.3,30.23,ENE,66,3.6,3.6,64,0.00,,,0.00,WeatherDisplay:10.36,2013-04-25 12:18:00,
2013-04-25 07:23:00,41.7,30.4,30.23,SSW,209,3.6,3.6,64,0.00,,,0.00,WeatherDisplay:10.36,2013-04-25 12:23:00,
2013-04-25 07:28:00,42.6,31.3,30.23,East,83,3.6,0.0,64,0.00,,,0.00,WeatherDisplay:10.36,2013-04-25 12:28:00,
2013-04-25 07:33:00,43.0,31.6,30.23,ENE,76,3.6,3.6,64,0.00,,,0.00,WeatherDisplay:10.36,2013-04-25 12:33:00,
2013-04-25 07:39:00,43.9,32.5,30.23,NE,50,3.6,0.0,64,0.00,,,0.00,WeatherDisplay:10.36,2013-04-25 12:39:00,
2013-04-25 07:44:00,44.8,33.3,30.23,SE,134,3.6,0.0,64,0.00,,,0.00,WeatherDisplay:10.36,2013-04-25 12:44:00,
2013-04-25 07:49:00,45.5,33.6,30.23,East,100,4.0,4.0,63,0.00,,,0.00,WeatherDisplay:10.36,2013-04-25 12:49:00,
2013-04-25 07:54:00,46.4,34.1,30.23,ESE,106,2.7,0.0,62,0.00,,,0.00,WeatherDisplay:10.36,2013-04-25 12:54:00,
2013-04-25 07:59:00,47.3,34.1,30.23,ENE,61,4.6,4.6,60,0.00,,,0.00,WeatherDisplay:10.36,2013-04-25 12:59:00,
2013-04-25 08:04:00,48.4,34.3,30.23,ENE,72,4.5,0.0,58,0.00,,,0.00,WeatherDisplay:10.36,2013-04-25 13:04:00,
2013-04-25 08:09:00,49.1,33.6,30.23,ESE,114,0.0,0.0,55,0.00,,,0.00,WeatherDisplay:10.36,2013-04-25 13:09:00,
2013-04-25 08:14:00,49.8,32.4,30.23,East,99,0.0,0.0,51,0.00,,,0.00,WeatherDisplay:10.36,2013-04-25 13:14:00,
2013-04-25 08:19:00,50.2,32.2,30.26,SE,141,2.3,0.0,50,0.00,,,0.00,WeatherDisplay:10.36,2013-04-25 13:19:00,
2013-04-25 08:24:00,50.7,32.2,30.26,East,92,0.0,0.0,49,0.00,,,0.00,WeatherDisplay:10.36,2013-04-25 13:24:00,
2013-04-25 08:29:00,51.3,31.7,30.26,ESE,121,4.6,4.6,47,0.00,,,0.00,WeatherDisplay:10.36,2013-04-25 13:29:00,
2013-04-25 08:34:00,51.6,31.5,30.26,East,85,4.6,0.0,46,0.00,,,0.00,WeatherDisplay:10.36,2013-04-25 13:34:00,
2013-04-25 08:39:00,52.0,31.3,30.26,East,80,5.8,5.8,45,0.00,,,0.00,WeatherDisplay:10.36,2013-04-25 13:39:00,
2013-04-25 08:44:00,52.3,31.0,30.26,ENE,64,5.8,5.8,44,0.00,,,0.00,WeatherDisplay:10.36,2013-04-25 13:44:00,
2013-04-25 08:49:00,52.7,31.4,30.26,NE,49,4.6,4.6,44,0.00,,,0.00,WeatherDisplay:10.36,2013-04-25 13:49:00,
2013-04-25 08:54:00,53.2,31.3,30.26,SSE,151,6.9,6.9,43,0.00,,,0.00,WeatherDisplay:10.36,2013-04-25 13:54:00,
2013-04-25 08:59:00,53.6,30.4,30.26,East,98,6.9,6.9,41,0.00,,,0.00,WeatherDisplay:10.36,2013-04-25 13:59:00,
2013-04-25 09:04:00,54.0,29.5,30.26,NE,50,6.3,6.3,39,0.00,,,0.00,WeatherDisplay:10.36,2013-04-25 14:04:00,
2013-04-25 09:09:00,54.1,29.7,30.26,NE,55,4.6,4.6,39,0.00,,,0.00,WeatherDisplay:10.36,2013-04-25 14:09:00,
2013-04-25 09:14:00,54.3,29.9,30.26,ENE,67,6.3,6.3,39,0.00,,,0.00,WeatherDisplay:10.36,2013-04-25 14:14:00,
2013-04-25 09:19:00,54.5,29.4,30.26,NE,51,5.8,5.8,38,0.00,,,0.00,WeatherDisplay:10.36,2013-04-25 14:19:00,
2013-04-25 09:24:00,55.0,29.9,30.26,ENE,77,4.6,4.6,38,0.00,,,0.00,WeatherDisplay:10.36,2013-04-25 14:24:00,
2013-04-25 09:29:00,55.4,29.5,30.26,NE,47,3.5,0.0,37,0.00,,,0.00,WeatherDisplay:10.36,2013-04-25 14:29:00,
2013-04-25 09:34:00,56.1,29.5,30.26,NE,55,5.8,5.8,36,0.00,,,0.00,WeatherDisplay:10.36,2013-04-25 14:34:00,
2013-04-25 09:39:00,56.5,29.1,30.26,ESE,117,6.3,6.3,35,0.00,,,0.00,WeatherDisplay:10.36,2013-04-25 14:39:00,
2013-04-25 09:44:00,56.5,28.4,30.26,NE,49,5.8,5.8,34,0.00,,,0.00,WeatherDisplay:10.36,2013-04-25 14:44:00,
2013-04-25 09:49:00,56.7,27.1,30.26,NE,53,5.8,5.8,32,0.00,,,0.00,WeatherDisplay:10.36,2013-04-25 14:49:00,
2013-04-25 09:54:00,56.7,27.1,30.26,NE,48,6.3,6.3,32,0.00,,,0.00,WeatherDisplay:10.36,2013-04-25 14:54:00,
2013-04-25 09:59:00,56.8,26.5,30.26,NE,49,4.0,4.0,31,0.00,,,0.00,WeatherDisplay:10.36,2013-04-25 14:59:00,
2013-04-25 10:04:00,57.2,26.8,30.26,NE,48,5.8,5.8,31,0.00,,,0.00,WeatherDisplay:10.36,2013-04-25 15:04:00,
2013-04-25 10:09:00,57.7,27.3,30.26,WSW,241,6.7,6.7,31,0.00,,,0.00,WeatherDisplay:10.36,2013-04-25 15:09:00,
2013-04-25 10:14:00,58.1,26.8,30.26,ENE,74,5.4,5.4,30,0.00,,,0.00,WeatherDisplay:10.36,2013-04-25 15:14:00,
2013-04-25 10:19:00,58.5,25.4,30.26,NE,55,4.6,4.6,28,0.00,,,0.00,WeatherDisplay:10.36,2013-04-25 15:19:00,
2013-04-25 10:24:00,59.0,25.0,30.26,NE,43,6.3,6.3,27,0.00,,,0.00,WeatherDisplay:10.36,2013-04-25 15:24:00,
2013-04-25 10:29:00,59.4,24.4,30.26,SE,131,5.8,5.8,26,0.00,,,0.00,WeatherDisplay:10.36,2013-04-25 15:29:00,
2013-04-25 10:34:00,59.7,24.7,30.26,ENE,73,4.6,4.6,26,0.00,,,0.00,WeatherDisplay:10.36,2013-04-25 15:34:00,
2013-04-25 10:39:00,60.1,24.1,30.26,ENE,66,6.9,6.9,25,0.00,,,0.00,WeatherDisplay:10.36,2013-04-25 15:39:00,
2013-04-25 10:44:00,60.4,24.4,30.26,NE,46,5.4,5.4,25,0.00,,,0.00,WeatherDisplay:10.36,2013-04-25 15:44:00,
2013-04-25 10:49:00,60.6,24.6,30.29,NE,56,6.9,6.9,25,0.00,,,0.00,WeatherDisplay:10.36,2013-04-25 15:49:00,
2013-04-25 10:54:00,60.8,24.7,30.29,SE,124,6.9,6.9,25,0.00,,,0.00,WeatherDisplay:10.36,2013-04-25 15:54:00,
2013-04-25 10:59:00,61.0,24.9,30.29,NE,44,6.9,6.9,25,0.00,,,0.00,WeatherDisplay:10.36,2013-04-25 15:59:00,
2013-04-25 11:04:00,61.3,25.2,30.29,NE,47,5.4,5.4,25,0.00,,,0.00,WeatherDisplay:10.36,2013-04-25 16:04:00,
2013-04-25 11:09:00,61.7,24.5,30.29,ENE,58,4.0,4.0,24,0.00,,,0.00,WeatherDisplay:10.36,2013-04-25 16:09:00,
2013-04-25 11:14:00,62.1,23.8,30.29,SSE,151,9.2,9.2,23,0.00,,,0.00,WeatherDisplay:10.36,2013-04-25 16:14:00,
2013-04-25 11:19:00,62.1,23.8,30.29,ESE,122,6.9,6.9,23,0.00,,,0.00,WeatherDisplay:10.36,2013-04-25 16:19:00,
2013-04-25 11:24:00,62.2,23.9,30.29,NE,55,6.9,6.9,23,0.00,,,0.00,WeatherDisplay:10.36,2013-04-25 16:24:00,
2013-04-25 11:29:00,62.4,21.9,30.29,ESE,105,6.9,6.9,21,0.00,,,0.00,WeatherDisplay:10.36,2013-04-25 16:29:00,
2013-04-25 11:34:00,62.6,24.2,30.29,ESE,114,4.0,4.0,23,0.00,,,0.00,WeatherDisplay:10.36,2013-04-25 16:34:00,
2013-04-25 11:39:00,62.8,24.4,30.29,NE,48,8.1,8.1,23,0.00,,,0.00,WeatherDisplay:10.36,2013-04-25 16:39:00,
2013-04-25 11:44:00,63.1,22.5,30.29,East,93,12.1,12.1,21,0.00,,,0.00,WeatherDisplay:10.36,2013-04-25 16:44:00,
2013-04-25 11:49:00,63.1,16.2,30.29,NE,49,6.3,6.3,16,0.00,,,0.00,WeatherDisplay:10.36,2013-04-25 16:49:00,
2013-04-25 11:54:00,63.3,19.0,30.29,East,89,6.9,6.9,18,0.00,,,0.00,WeatherDisplay:10.36,2013-04-25 16:54:00,
2013-04-25 11:59:00,63.7,21.8,30.29,WSW,244,8.1,8.1,20,0.00,,,0.00,WeatherDisplay:10.36,2013-04-25 16:59:00,
2013-04-25 12:04:00,64.2,19.8,30.29,SW,227,6.9,6.9,18,0.00,,,0.00,WeatherDisplay:10.36,2013-04-25 17:04:00,
2013-04-25 12:09:00,64.2,19.8,30.29,East,84,9.2,9.2,18,0.00,,,0.00,WeatherDisplay:10.36,2013-04-25 17:09:00,
2013-04-25 12:14:00,64.2,19.8,30.29,NE,48,6.9,6.9,18,0.00,,,0.00,WeatherDisplay:10.36,2013-04-25 17:14:00,
2013-04-25 12:19:00,64.4,19.9,30.29,SW,235,5.8,5.8,18,0.00,,,0.00,WeatherDisplay:10.36,2013-04-25 17:19:00,
2013-04-25 12:24:00,64.4,19.9,30.29,ENE,68,4.9,4.9,18,0.00,,,0.00,WeatherDisplay:10.36,2013-04-25 17:24:00,
2013-04-25 12:29:00,64.2,15.5,30.29,East,83,8.1,8.1,15,0.00,,,0.00,WeatherDisplay:10.36,2013-04-25 17:29:00,
2013-04-25 12:34:00,64.2,19.8,30.29,NE,50,8.7,8.7,18,0.00,,,0.00,WeatherDisplay:10.36,2013-04-25 17:34:00,
2013-04-25 12:39:00,64.2,19.8,30.29,NE,44,5.4,5.4,18,0.00,,,0.00,WeatherDisplay:10.36,2013-04-25 17:39:00,
2013-04-25 12:44:00,64.4,19.9,30.29,ENE,66,8.7,8.7,18,0.00,,,0.00,WeatherDisplay:10.36,2013-04-25 17:44:00,
2013-04-25 12:49:00,64.4,19.9,30.29,WSW,255,7.8,7.8,18,0.00,,,0.00,WeatherDisplay:10.36,2013-04-25 17:49:00,
2013-04-25 12:54:00,64.0,15.4,30.29,ENE,71,6.9,6.9,15,0.00,,,0.00,WeatherDisplay:10.36,2013-04-25 17:54:00,
2013-04-25 12:59:00,63.7,19.3,30.29,ESE,114,5.8,5.8,18,0.00,,,0.00,WeatherDisplay:10.36,2013-04-25 17:59:00,
2013-04-25 13:04:00,63.9,19.5,30.29,ENE,67,5.8,5.8,18,0.00,,,0.00,WeatherDisplay:10.36,2013-04-25 18:04:00,
2013-04-25 13:09:00,63.9,22.0,30.29,ESE,107,5.8,5.8,20,0.00,,,0.00,WeatherDisplay:10.36,2013-04-25 18:09:00,
2013-04-25 13:14:00,64.0,19.6,30.29,NE,54,7.4,7.4,18,0.00,,,0.00,WeatherDisplay:10.36,2013-04-25 18:14:00,
2013-04-25 13:19:00,64.0,19.6,30.26,NE,48,6.7,6.7,18,0.00,,,0.00,WeatherDisplay:10.36,2013-04-25 18:19:00,
2013-04-25 13:24:00,63.9,19.5,30.26,ESE,115,6.3,6.3,18,0.00,,,0.00,WeatherDisplay:10.36,2013-04-25 18:24:00,
2013-04-25 13:29:00,64.0,19.6,30.26,East,100,5.8,5.8,18,0.00,,,0.00,WeatherDisplay:10.36,2013-04-25 18:29:00,
2013-04-25 13:34:00,64.2,22.3,30.26,ENE,66,9.6,9.6,20,0.00,,,0.00,WeatherDisplay:10.36,2013-04-25 18:34:00,
2013-04-25 13:39:00,64.4,22.4,30.26,ENE,65,6.9,6.9,20,0.00,,,0.00,WeatherDisplay:10.36,2013-04-25 18:39:00,
2013-04-25 13:44:00,63.9,19.5,30.26,SW,234,5.8,5.8,18,0.00,,,0.00,WeatherDisplay:10.36,2013-04-25 18:44:00,
2013-04-25 13:49:00,63.9,19.5,30.26,East,89,6.7,6.7,18,0.00,,,0.00,WeatherDisplay:10.36,2013-04-25 18:49:00,
2013-04-25 13:54:00,63.9,19.5,30.26,ENE,76,8.1,8.1,18,0.00,,,0.00,WeatherDisplay:10.36,2013-04-25 18:54:00,
2013-04-25 13:59:00,64.2,19.8,30.26,NE,46,9.2,9.2,18,0.00,,,0.00,WeatherDisplay:10.36,2013-04-25 18:59:00,
2013-04-25 14:04:00,64.2,22.3,30.26,ENE,75,6.9,6.9,20,0.00,,,0.00,WeatherDisplay:10.36,2013-04-25 19:04:00,
2013-04-25 14:09:00,64.4,22.4,30.26,SSW,196,6.7,6.7,20,0.00,,,0.00,WeatherDisplay:10.36,2013-04-25 19:09:00,
2013-04-25 14:14:00,64.8,22.7,30.26,NE,55,5.8,5.8,20,0.00,,,0.00,WeatherDisplay:10.36,2013-04-25 19:14:00,
2013-04-25 14:19:00,64.8,22.7,30.26,West,264,5.8,5.8,20,0.00,,,0.00,WeatherDisplay:10.36,2013-04-25 19:19:00,
2013-04-25 14:24:00,64.6,20.1,30.26,ENE,62,6.3,6.3,18,0.00,,,0.00,WeatherDisplay:10.36,2013-04-25 19:24:00,
2013-04-25 14:30:00,64.6,20.1,30.26,SW,225,5.8,5.8,18,0.00,,,0.00,WeatherDisplay:10.36,2013-04-25 19:30:00,
2013-04-25 14:35:00,64.8,22.7,30.26,NE,47,6.3,6.3,20,0.00,,,0.00,WeatherDisplay:10.36,2013-04-25 19:35:00,
2013-04-25 14:40:00,64.8,22.7,30.26,NE,48,5.8,0.0,20,0.00,,,0.00,WeatherDisplay:10.36,2013-04-25 19:40:00,
2013-04-25 14:45:00,64.6,20.1,30.26,West,261,7.4,7.4,18,0.00,,,0.00,WeatherDisplay:10.36,2013-04-25 19:45:00,
2013-04-25 14:50:00,64.6,20.1,30.26,ENE,67,6.9,6.9,18,0.00,,,0.00,WeatherDisplay:10.36,2013-04-25 19:50:00,
2013-04-25 14:55:00,64.8,20.2,30.26,West,263,6.9,6.9,18,0.00,,,0.00,WeatherDisplay:10.36,2013-04-25 19:55:00,
2013-04-25 15:00:00,64.8,20.2,30.26,ENE,73,4.9,4.9,18,0.00,,,0.00,WeatherDisplay:10.36,2013-04-25 20:00:00,
2013-04-25 15:05:00,64.9,20.4,30.26,SSE,153,6.3,6.3,18,0.00,,,0.00,WeatherDisplay:10.36,2013-04-25 20:05:00,
2013-04-25 15:10:00,65.1,20.5,30.26,NE,44,6.3,6.3,18,0.00,,,0.00,WeatherDisplay:10.36,2013-04-25 20:10:00,
2013-04-25 15:15:00,65.1,20.5,30.26,East,93,5.8,5.8,18,0.00,,,0.00,WeatherDisplay:10.36,2013-04-25 20:15:00,
2013-04-25 15:20:00,65.3,20.7,30.26,NE,51,4.5,4.5,18,0.00,,,0.00,WeatherDisplay:10.36,2013-04-25 20:20:00,
2013-04-25 15:25:00,65.3,20.7,30.26,NE,48,5.8,5.8,18,0.00,,,0.00,WeatherDisplay:10.36,2013-04-25 20:25:00,
2013-04-25 15:30:00,65.3,20.7,30.26,NE,50,8.3,8.3,18,0.00,,,0.00,WeatherDisplay:10.36,2013-04-25 20:30:00,
2013-04-25 15:35:00,64.9,20.4,30.23,NE,47,7.4,7.4,18,0.00,,,0.00,WeatherDisplay:10.36,2013-04-25 20:35:00,
2013-04-25 15:40:00,64.9,20.4,30.23,ENE,65,6.3,6.3,18,0.00,,,0.00,WeatherDisplay:10.36,2013-04-25 20:40:00,
2013-04-25 15:45:00,64.9,20.4,30.23,NE,53,6.3,6.3,18,0.00,,,0.00,WeatherDisplay:10.36,2013-04-25 20:45:00,
2013-04-25 15:50:00,64.9,20.4,30.23,East,99,5.8,5.8,18,0.00,,,0.00,WeatherDisplay:10.36,2013-04-25 20:50:00,
2013-04-25 15:55:00,64.8,22.7,30.23,East,85,5.8,5.8,20,0.00,,,0.00,WeatherDisplay:10.36,2013-04-25 20:55:00,
2013-04-25 16:00:00,65.1,23.0,30.23,SE,139,6.3,6.3,20,0.00,,,0.00,WeatherDisplay:10.36,2013-04-25 21:00:00,
2013-04-25 16:05:00,66.6,24.2,30.23,NE,48,5.8,5.8,20,0.00,,,0.00,WeatherDisplay:10.36,2013-04-25 21:05:00,
2013-04-25 16:10:00,67.3,20.9,30.23,East,88,6.7,6.7,17,0.00,,,0.00,WeatherDisplay:10.36,2013-04-25 21:10:00,
2013-04-25 16:15:00,67.3,20.9,30.23,NE,47,5.4,5.4,17,0.00,,,0.00,WeatherDisplay:10.36,2013-04-25 21:15:00,
2013-04-25 16:20:00,66.9,17.7,30.23,East,81,6.9,6.9,15,0.00,,,0.00,WeatherDisplay:10.36,2013-04-25 21:20:00,
2013-04-25 16:25:00,66.7,20.5,30.23,ESE,113,6.9,6.9,17,0.00,,,0.00,WeatherDisplay:10.36,2013-04-25 21:25:00,
2013-04-25 16:30:00,66.2,17.1,30.23,East,94,9.6,9.6,15,0.00,,,0.00,WeatherDisplay:10.36,2013-04-25 21:30:00,
2013-04-25 16:35:00,65.8,19.8,30.23,NE,46,4.6,4.6,17,0.00,,,0.00,WeatherDisplay:10.36,2013-04-25 21:35:00,
2013-04-25 16:40:00,65.5,19.5,30.23,SE,133,5.8,5.8,17,0.00,,,0.00,WeatherDisplay:10.36,2013-04-25 21:40:00,
2013-04-25 16:45:00,65.5,19.5,30.23,ENE,58,6.9,6.9,17,0.00,,,0.00,WeatherDisplay:10.36,2013-04-25 21:45:00,
2013-04-25 16:50:00,65.3,16.4,30.23,West,264,5.8,5.8,15,0.00,,,0.00,WeatherDisplay:10.36,2013-04-25 21:50:00,
2013-04-25 16:55:00,64.9,16.1,30.23,West,262,5.8,5.8,15,0.00,,,0.00,WeatherDisplay:10.36,2013-04-25 21:55:00,
2013-04-25 17:00:00,64.9,20.4,30.23,NE,51,5.4,5.4,18,0.00,,,0.00,WeatherDisplay:10.36,2013-04-25 22:00:00,
2013-04-25 17:05:00,64.8,16.0,30.20,ENE,57,5.8,5.8,15,0.00,,,0.00,WeatherDisplay:10.36,2013-04-25 22:05:00,
2013-04-25 17:10:00,64.4,15.7,30.20,SSE,155,5.8,5.8,15,0.00,,,0.00,WeatherDisplay:10.36,2013-04-25 22:10:00,
2013-04-25 17:15:00,64.4,15.7,30.20,NE,48,5.8,5.8,15,0.00,,,0.00,WeatherDisplay:10.36,2013-04-25 22:15:00,
2013-04-25 17:20:00,64.0,15.4,30.23,South,175,4.9,0.0,15,0.00,,,0.00,WeatherDisplay:10.36,2013-04-25 22:20:00,
2013-04-25 17:25:00,63.9,15.2,30.23,North,351,4.9,4.9,15,0.00,,,0.00,WeatherDisplay:10.36,2013-04-25 22:25:00,
2013-04-25 17:30:00,63.3,16.3,30.23,NNE,27,0.0,0.0,16,0.00,,,0.00,WeatherDisplay:10.36,2013-04-25 22:30:00,
2013-04-25 17:35:00,63.1,16.2,30.23,ENE,78,0.0,0.0,16,0.00,,,0.00,WeatherDisplay:10.36,2013-04-25 22:35:00,
2013-04-25 17:40:00,63.1,18.9,30.23,West,264,6.7,6.7,18,0.00,,,0.00,WeatherDisplay:10.36,2013-04-25 22:40:00,
2013-04-25 17:45:00,63.1,18.9,30.23,ENE,70,5.4,5.4,18,0.00,,,0.00,WeatherDisplay:10.36,2013-04-25 22:45:00,
2013-04-25 17:50:00,63.1,18.9,30.23,ENE,73,4.6,4.6,18,0.00,,,0.00,WeatherDisplay:10.36,2013-04-25 22:50:00,
2013-04-25 17:55:00,63.1,18.9,30.23,NE,50,5.8,5.8,18,0.00,,,0.00,WeatherDisplay:10.36,2013-04-25 22:55:00,
2013-04-25 18:00:00,63.0,18.7,30.23,ENE,68,4.0,4.0,18,0.00,,,0.00,WeatherDisplay:10.36,2013-04-25 23:00:00,
2013-04-25 18:05:00,63.0,18.7,30.23,SW,216,4.6,4.6,18,0.00,,,0.00,WeatherDisplay:10.36,2013-04-25 23:05:00,
2013-04-25 18:10:00,62.8,18.6,30.23,East,87,5.8,5.8,18,0.00,,,0.00,WeatherDisplay:10.36,2013-04-25 23:10:00,
2013-04-25 18:15:00,62.6,18.4,30.23,ESE,121,4.5,4.5,18,0.00,,,0.00,WeatherDisplay:10.36,2013-04-25 23:15:00,
2013-04-25 18:20:00,62.6,18.4,30.23,ESE,110,5.8,5.8,18,0.00,,,0.00,WeatherDisplay:10.36,2013-04-25 23:20:00,
2013-04-25 18:25:00,62.4,18.3,30.23,NE,48,4.9,0.0,18,0.00,,,0.00,WeatherDisplay:10.36,2013-04-25 23:25:00,
2013-04-25 18:30:00,62.2,18.1,30.23,SSW,202,5.8,5.8,18,0.00,,,0.00,WeatherDisplay:10.36,2013-04-25 23:30:00,
2013-04-25 18:35:00,62.1,18.0,30.20,ENE,78,4.9,4.9,18,0.00,,,0.00,WeatherDisplay:10.36,2013-04-25 23:35:00,
2013-04-25 18:40:00,61.9,17.9,30.20,SSW,207,3.5,0.0,18,0.00,,,0.00,WeatherDisplay:10.36,2013-04-25 23:40:00,
2013-04-25 18:45:00,61.7,19.0,30.20,SW,231,4.0,4.0,19,0.00,,,0.00,WeatherDisplay:10.36,2013-04-25 23:45:00,
2013-04-25 18:50:00,61.5,18.8,30.20,West,263,9.2,9.2,19,0.00,,,0.00,WeatherDisplay:10.36,2013-04-25 23:50:00,
2013-04-25 18:55:00,61.2,18.5,30.20,SSE,156,6.9,6.9,19,0.00,,,0.00,WeatherDisplay:10.36,2013-04-25 23:55:00,
2013-04-25 19:00:00,61.0,18.4,30.20,ESE,113,5.8,5.8,19,0.00,,,0.00,WeatherDisplay:10.36,2013-04-26 00:00:00,
2013-04-25 19:05:00,61.0,18.4,30.20,NE,47,0.0,0.0,19,0.00,,,0.00,WeatherDisplay:10.36,2013-04-26 00:05:00,
2013-04-25 19:10:00,60.8,20.6,30.20,East,92,6.9,6.9,21,0.00,,,0.00,WeatherDisplay:10.36,2013-04-26 00:10:00,
2013-04-25 19:15:00,60.6,20.4,30.20,West,264,6.9,6.9,21,0.00,,,0.00,WeatherDisplay:10.36,2013-04-26 00:15:00,
2013-04-25 19:20:00,60.4,23.4,30.23,SW,219,5.8,5.8,24,0.00,,,0.00,WeatherDisplay:10.36,2013-04-26 00:20:00,
2013-04-25 19:25:00,60.4,23.4,30.23,SW,233,4.9,4.9,24,0.00,,,0.00,WeatherDisplay:10.36,2013-04-26 00:25:00,
2013-04-25 19:30:00,60.3,24.3,30.23,NE,49,6.9,6.9,25,0.00,,,0.00,WeatherDisplay:10.36,2013-04-26 00:30:00,
2013-04-25 19:35:00,60.1,23.1,30.20,ENE,67,6.9,6.9,24,0.00,,,0.00,WeatherDisplay:10.36,2013-04-26 00:35:00,
2013-04-25 19:40:00,60.1,23.1,30.20,SSW,195,5.8,5.8,24,0.00,,,0.00,WeatherDisplay:10.36,2013-04-26 00:40:00,
2013-04-25 19:45:00,59.9,23.0,30.20,WSW,245,4.6,4.6,24,0.00,,,0.00,WeatherDisplay:10.36,2013-04-26 00:45:00,
2013-04-25 19:50:00,59.7,22.8,30.20,ESE,111,4.0,4.0,24,0.00,,,0.00,WeatherDisplay:10.36,2013-04-26 00:50:00,
2013-04-25 19:55:00,59.4,22.5,30.20,SSW,209,3.6,3.6,24,0.00,,,0.00,WeatherDisplay:10.36,2013-04-26 00:55:00,
2013-04-25 20:00:00,59.2,22.4,30.20,South,178,3.6,3.6,24,0.00,,,0.00,WeatherDisplay:10.36,2013-04-26 01:00:00,
2013-04-25 20:05:00,58.8,22.1,30.20,SSE,160,3.6,3.6,24,0.00,,,0.00,WeatherDisplay:10.36,2013-04-26 01:05:00,
2013-04-25 20:10:00,58.6,21.9,30.20,NE,45,3.5,3.5,24,0.00,,,0.00,WeatherDisplay:10.36,2013-04-26 01:10:00,
2013-04-25 20:15:00,58.3,21.6,30.20,NE,44,0.0,0.0,24,0.00,,,0.00,WeatherDisplay:10.36,2013-04-26 01:15:00,
2013-04-25 20:20:00,57.9,21.3,30.20,East,93,0.0,0.0,24,0.00,,,0.00,WeatherDisplay:10.36,2013-04-26 01:20:00,
2013-04-25 20:25:00,57.7,22.1,30.20,ENE,74,0.0,0.0,25,0.00,,,0.00,WeatherDisplay:10.36,2013-04-26 01:25:00,
2013-04-25 20:30:00,57.4,21.8,30.20,NE,49,0.0,0.0,25,0.00,,,0.00,WeatherDisplay:10.36,2013-04-26 01:30:00,
2013-04-25 20:35:00,57.2,21.6,30.20,NE,47,0.0,0.0,25,0.00,,,0.00,WeatherDisplay:10.36,2013-04-26 01:35:00,
2013-04-25 20:40:00,57.0,21.5,30.20,NE,55,3.5,3.5,25,0.00,,,0.00,WeatherDisplay:10.36,2013-04-26 01:40:00,
2013-04-25 20:45:00,56.8,21.3,30.20,ENE,58,3.6,3.6,25,0.00,,,0.00,WeatherDisplay:10.36,2013-04-26 01:45:00,
2013-04-25 20:50:00,56.8,21.3,30.20,East,80,3.6,3.6,25,0.00,,,0.00,WeatherDisplay:10.36,2013-04-26 01:50:00,
2013-04-25 20:55:00,56.7,21.2,30.20,ENE,70,0.0,0.0,25,0.00,,,0.00,WeatherDisplay:10.36,2013-04-26 01:55:00,
2013-04-25 21:00:00,56.5,21.0,30.20,NE,45,4.0,4.0,25,0.00,,,0.00,WeatherDisplay:10.36,2013-04-26 02:00:00,
2013-04-25 21:05:00,56.3,21.8,30.20,ESE,106,3.6,3.6,26,0.00,,,0.00,WeatherDisplay:10.36,2013-04-26 02:05:00,
2013-04-25 21:10:00,56.1,21.7,30.20,East,100,0.0,0.0,26,0.00,,,0.00,WeatherDisplay:10.36,2013-04-26 02:10:00,
2013-04-25 21:15:00,56.1,21.7,30.20,East,101,0.0,0.0,26,0.00,,,0.00,WeatherDisplay:10.36,2013-04-26 02:15:00,
2013-04-25 21:20:00,55.9,22.4,30.20,SE,133,3.6,3.6,27,0.00,,,0.00,WeatherDisplay:10.36,2013-04-26 02:20:00,
2013-04-25 21:25:00,55.8,22.2,30.20,ENE,75,0.0,0.0,27,0.00,,,0.00,WeatherDisplay:10.36,2013-04-26 02:25:00,
2013-04-25 21:30:00,55.6,22.1,30.20,ENE,76,0.0,0.0,27,0.00,,,0.00,WeatherDisplay:10.36,2013-04-26 02:30:00,
2013-04-25 21:35:00,55.4,21.9,30.20,East,98,0.0,0.0,27,0.00,,,0.00,WeatherDisplay:10.36,2013-04-26 02:35:00,
2013-04-25 21:40:00,55.0,22.5,30.20,ENE,66,2.3,0.0,28,0.00,,,0.00,WeatherDisplay:10.36,2013-04-26 02:40:00,
2013-04-25 21:45:00,54.9,23.2,30.20,East,91,0.0,0.0,29,0.00,,,0.00,WeatherDisplay:10.36,2013-04-26 02:45:00,
2013-04-25 21:50:00,54.7,23.0,30.23,ENE,73,0.0,0.0,29,0.00,,,0.00,WeatherDisplay:10.36,2013-04-26 02:50:00,
2013-04-25 21:56:00,54.5,22.9,30.23,ENE,71,0.0,0.0,29,0.00,,,0.00,WeatherDisplay:10.36,2013-04-26 02:56:00,
2013-04-25 22:01:00,54.3,23.5,30.23,ENE,72,0.0,0.0,30,0.00,,,0.00,WeatherDisplay:10.36,2013-04-26 03:01:00,
2013-04-25 22:06:00,54.3,23.5,30.23,NE,40,0.0,3.1,30,0.00,,,0.00,WeatherDisplay:10.36,2013-04-26 03:06:00,
2013-04-25 22:11:00,54.1,23.3,30.23,SE,138,4.0,4.0,30,0.00,,,0.00,WeatherDisplay:10.36,2013-04-26 03:11:00,
2013-04-25 22:16:00,54.1,23.3,30.23,SE,134,2.7,3.1,30,0.00,,,0.00,WeatherDisplay:10.36,2013-04-26 03:16:00,
2013-04-25 22:21:00,54.0,23.2,30.23,East,86,3.1,3.1,30,0.00,,,0.00,WeatherDisplay:10.36,2013-04-26 03:21:00,
2013-04-25 22:26:00,54.0,23.2,30.23,East,85,3.1,3.6,30,0.00,,,0.00,WeatherDisplay:10.36,2013-04-26 03:26:00,
2013-04-25 22:31:00,53.8,23.0,30.23,NE,53,4.5,4.5,30,0.00,,,0.00,WeatherDisplay:10.36,2013-04-26 03:31:00,
2013-04-25 22:36:00,53.8,23.0,30.23,NE,53,0.0,0.0,30,0.00,,,0.00,WeatherDisplay:10.36,2013-04-26 03:36:00,
2013-04-25 22:41:00,53.6,22.9,30.23,NE,54,0.0,0.0,30,0.00,,,0.00,WeatherDisplay:10.36,2013-04-26 03:41:00,
2013-04-25 22:46:00,53.4,22.7,30.23,NE,54,3.1,0.0,30,0.00,,,0.00,WeatherDisplay:10.36,2013-04-26 03:46:00,
2013-04-25 22:51:00,53.4,23.5,30.20,SE,131,3.1,3.1,31,0.00,,,0.00,WeatherDisplay:10.36,2013-04-26 03:51:00,
2013-04-25 22:56:00,53.2,23.3,30.20,NE,48,0.0,0.0,31,0.00,,,0.00,WeatherDisplay:10.36,2013-04-26 03:56:00,
2013-04-25 23:01:00,53.2,23.3,30.20,NE,49,3.6,3.6,31,0.00,,,0.00,WeatherDisplay:10.36,2013-04-26 04:01:00,
2013-04-25 23:02:00,53.2,23.3,30.20,NE,49,3.6,3.6,31,0.00,,,0.00,WeatherDisplay:10.36,2013-04-26 04:02:00,
2013-04-25 23:03:00,53.2,23.3,30.20,NE,48,3.6,3.6,31,0.00,,,0.00,WeatherDisplay:10.36,2013-04-26 04:03:00,
2013-04-25 23:05:00,53.2,23.3,30.20,NE,48,0.0,0.0,31,0.00,,,0.00,WeatherDisplay:10.36,2013-04-26 04:05:00,
2013-04-25 23:09:00,53.2,23.3,30.20,ESE,119,4.6,4.6,31,0.00,,,0.00,WeatherDisplay:10.36,2013-04-26 04:09:00,
2013-04-25 23:14:00,53.2,23.3,30.20,ENE,62,4.0,4.0,31,0.00,,,0.00,WeatherDisplay:10.36,2013-04-26 04:14:00,
2013-04-25 23:19:00,53.2,22.6,30.23,SW,219,0.0,0.0,30,0.00,,,0.00,WeatherDisplay:10.36,2013-04-26 04:19:00,
2013-04-25 23:24:00,53.2,23.3,30.23,NE,55,0.0,0.0,31,0.00,,,0.00,WeatherDisplay:10.36,2013-04-26 04:24:00,
2013-04-25 23:29:00,53.1,23.2,30.23,East,99,3.6,3.6,31,0.00,,,0.00,WeatherDisplay:10.36,2013-04-26 04:29:00,
2013-04-25 23:34:00,53.1,23.2,30.20,ENE,69,4.6,4.6,31,0.00,,,0.00,WeatherDisplay:10.36,2013-04-26 04:34:00,
2013-04-25 23:39:00,53.1,23.2,30.20,West,264,4.6,4.6,31,0.00,,,0.00,WeatherDisplay:10.36,2013-04-26 04:39:00,
2013-04-25 23:44:00,53.1,23.2,30.20,East,80,4.9,4.9,31,0.00,,,0.00,WeatherDisplay:10.36,2013-04-26 04:44:00,
2013-04-25 23:49:00,53.1,23.2,30.20,NE,46,4.6,4.6,31,0.00,,,0.00,WeatherDisplay:10.36,2013-04-26 04:49:00,
2013-04-25 23:54:00,53.1,23.2,30.20,West,259,4.5,4.5,31,0.00,,,0.00,WeatherDisplay:10.36,2013-04-26 04:54:00,
2013-04-25 23:59:00,53.1,22.4,30.20,East,95,4.6,4.6,30,0.00,,,0.00,WeatherDisplay:10.36,2013-04-26 04:59:00,